หน้าหลัก
METAR-TAF:

METAR-TAF

ท่าอากาศยาน :

Pilanesberg International Airport

Sun City, แอฟริกาใต้

ละติจูด: 25-20-01S, ลองจิจูด: 027-10-24E, ความสูง: 1040 ม.

การสังเกตสภาพอากาศปัจจุบัน

รายงานได้ทำขึ้นเมื่อ 44 นาทีที่แล้ว ณ เวลา 23:00 UTC
ลม 1 นอตจากตะวันตกเฉียงใต้
อุณหภูมิ 14°C
ความชื้น 77%
ความกดอากาศ 1020 hPa

METAR: FAPN 232300Z AUTO 23001KT //// // ////// 14/10 Q1020

เวลา: 01:44 (23:44 UTC)


TAF: หายไป

สังเกตการณ์สภาพอากาศและพยากรณ์อากาศของสนามบินมากกว่า 4000 แห่ง (รายงาน METAR และ TAF).

สถานีที่ดูได้จะแสดงไว้ด้วยจุดสีเหลืองและสีแดงบนแผนที่.

เลื่อนเมาส์ไปเหนือจุดเพื่อดูชื่อสถานี.

แล้วคลิกเพื่อดูสังเกตการณ์และการพยากรณ์สภาพอากาศ.

ในการเปลี่ยนแผนที่: คลิกที่ปุ่มสีเขียวที่มีกากบาทสีดำเพื่อซูมเข้า; ที่ปุ่มสีเขียวที่มีขีดเพื่อซูมออก; หรือที่ลูกศรสีเขียวเพื่อไปยังแผนที่ที่อยู่ติดกัน.


METAR-TAF: